createdAt,value
2022-11-18T00:01:08.038Z,98426.88
2022-11-18T00:04:11.480Z,98423.03
2022-11-18T00:07:14.294Z,98428.59
2022-11-18T00:10:18.047Z,98434.97
2022-11-18T00:13:40.070Z,98437.47
2022-11-18T00:16:42.828Z,98420.16
2022-11-18T00:19:45.591Z,98439.81
2022-11-18T00:22:48.366Z,98418.00
2022-11-18T00:25:51.431Z,98410.00
2022-11-18T00:28:55.509Z,98430.94
2022-11-18T00:31:59.086Z,98430.94
2022-11-18T00:35:01.992Z,98431.03
2022-11-18T00:38:04.776Z,98427.56
2022-11-18T00:41:10.399Z,98425.38
2022-11-18T00:44:13.649Z,98417.56
2022-11-18T00:47:16.382Z,98421.44
2022-11-18T00:50:19.157Z,98426.34
2022-11-18T00:53:23.439Z,98424.31
2022-11-18T00:56:26.323Z,98417.88
2022-11-18T00:59:30.401Z,98417.28
2022-11-18T01:02:33.273Z,98417.78
2022-11-18T01:05:36.113Z,98423.09
2022-11-18T01:08:38.980Z,98418.66
2022-11-18T01:11:59.021Z,98423.28
2022-11-18T01:15:03.220Z,98424.28
2022-11-18T01:18:06.019Z,98425.91
2022-11-18T01:21:08.724Z,98427.75
2022-11-18T01:24:11.446Z,98428.06
2022-11-18T01:27:14.214Z,98440.66
2022-11-18T01:30:18.501Z,98444.50
2022-11-18T01:33:21.203Z,98453.09
2022-11-18T01:36:25.819Z,98440.09
2022-11-18T01:39:28.615Z,98427.41
2022-11-18T01:42:31.362Z,98453.78
2022-11-18T01:45:38.399Z,98450.13
2022-11-18T01:48:41.602Z,98458.31
2022-11-18T01:51:50.547Z,98458.75
2022-11-18T01:54:58.489Z,98463.00
2022-11-18T01:58:06.703Z,98477.16
2022-11-18T02:01:10.906Z,98465.13
2022-11-18T02:04:15.355Z,98469.66
2022-11-18T02:07:18.734Z,98473.88
2022-11-18T02:10:26.037Z,98475.34
2022-11-18T02:13:29.064Z,98470.03
2022-11-18T02:16:46.242Z,98471.06
2022-11-18T02:20:11.701Z,98461.66
2022-11-18T02:24:05.181Z,98481.00
2022-11-18T02:27:35.156Z,98473.22
2022-11-18T02:30:45.449Z,98454.25
2022-11-18T02:33:54.487Z,98474.34
2022-11-18T02:37:02.247Z,98481.59
2022-11-18T02:40:11.379Z,98467.13
2022-11-18T02:43:19.219Z,98488.13
2022-11-18T02:46:28.652Z,98488.13
2022-11-18T02:49:37.392Z,98491.50
2022-11-18T02:52:43.684Z,98486.59
2022-11-18T02:55:47.647Z,98491.91
2022-11-18T02:58:50.403Z,98492.28
2022-11-18T03:01:54.526Z,98498.31
2022-11-18T03:05:00.506Z,98491.31
2022-11-18T03:08:09.162Z,98497.25
2022-11-18T03:11:17.060Z,98500.47
2022-11-18T03:14:25.980Z,98503.25
2022-11-18T03:17:40.462Z,98482.75
2022-11-18T03:20:48.831Z,98498.03
2022-11-18T03:24:00.494Z,98497.94
2022-11-18T03:27:12.922Z,98499.75
2022-11-18T03:30:19.985Z,98503.41
2022-11-18T03:33:32.087Z,98511.63
2022-11-18T03:36:40.441Z,98505.66
2022-11-18T03:39:47.426Z,98512.28
2022-11-18T03:42:53.415Z,98517.09
2022-11-18T03:46:01.027Z,98521.34
2022-11-18T03:49:08.715Z,98522.41
2022-11-18T03:52:16.695Z,98517.50
2022-11-18T03:55:24.179Z,98521.81
2022-11-18T03:58:35.295Z,98519.25
2022-11-18T04:01:44.377Z,98528.19
2022-11-18T04:04:51.578Z,98524.03
2022-11-18T04:07:58.480Z,98530.38
2022-11-18T04:11:07.144Z,98526.72
2022-11-18T04:14:12.088Z,98533.69
2022-11-18T04:17:17.602Z,98535.59
2022-11-18T04:20:23.323Z,98532.81
2022-11-18T04:23:26.053Z,98540.59
2022-11-18T04:26:28.806Z,98541.94
2022-11-18T04:29:32.209Z,98545.81
2022-11-18T04:32:35.181Z,98548.97
2022-11-18T04:35:39.255Z,98552.63
2022-11-18T04:38:42.003Z,98558.13
2022-11-18T04:41:56.483Z,98558.50
2022-11-18T04:44:59.244Z,98559.59
2022-11-18T04:48:03.765Z,98564.09
2022-11-18T04:51:08.264Z,98569.88
2022-11-18T04:54:11.445Z,98569.50
2022-11-18T04:57:14.359Z,98568.53
2022-11-18T05:00:18.082Z,98574.13
2022-11-18T05:03:20.773Z,98566.50
2022-11-18T05:06:24.986Z,98581.53
2022-11-18T05:09:31.798Z,98588.28
2022-11-18T05:12:50.084Z,98586.22
2022-11-18T05:15:52.826Z,98590.28
2022-11-18T05:18:55.557Z,98589.16
2022-11-18T05:21:59.796Z,98580.75
2022-11-18T05:25:02.606Z,98588.94
2022-11-18T05:28:05.683Z,98588.94
2022-11-18T05:31:09.365Z,98596.06
2022-11-18T05:34:12.354Z,98590.75
2022-11-18T05:37:16.525Z,98591.44
2022-11-18T05:40:19.462Z,98590.09
2022-11-18T05:43:21.178Z,98593.00
2022-11-18T05:46:23.996Z,98598.41
2022-11-18T05:49:26.691Z,98611.09
2022-11-18T05:52:30.826Z,98612.06
2022-11-18T05:55:39.549Z,98611.66
2022-11-18T05:58:42.248Z,98624.19
2022-11-18T06:01:48.915Z,98616.28
2022-11-18T06:04:56.689Z,98627.09
2022-11-18T06:08:01.096Z,98625.25
2022-11-18T06:11:04.993Z,98635.38
2022-11-18T06:14:12.429Z,98632.22
2022-11-18T06:17:19.937Z,98639.44
2022-11-18T06:20:23.402Z,98640.56
2022-11-18T06:23:29.124Z,98644.28
2022-11-18T06:26:31.826Z,98644.28
2022-11-18T06:29:34.599Z,98646.97
2022-11-18T06:32:37.286Z,98641.06
2022-11-18T06:35:40.639Z,98660.84
2022-11-18T06:38:44.784Z,98661.97
2022-11-18T06:41:47.602Z,98662.94
2022-11-18T06:44:49.445Z,98669.69
2022-11-18T06:47:52.174Z,98667.56
2022-11-18T06:50:54.913Z,98674.34
2022-11-18T06:53:59.130Z,98685.22
2022-11-18T06:57:01.974Z,98691.75
2022-11-18T07:00:05.884Z,98692.75
2022-11-18T07:03:08.682Z,98705.16
2022-11-18T07:06:14.948Z,98711.25
2022-11-18T07:09:19.484Z,98710.84
2022-11-18T07:12:23.253Z,98715.00
2022-11-18T07:15:26.101Z,98716.03
2022-11-18T07:18:30.972Z,98714.03
2022-11-18T07:21:34.697Z,98733.41
2022-11-18T07:24:38.926Z,98734.88
2022-11-18T07:27:41.724Z,98715.19
2022-11-18T07:30:44.493Z,98736.88
2022-11-18T07:33:48.301Z,98740.06
2022-11-18T07:36:51.018Z,98743.34
2022-11-18T07:39:55.262Z,98745.66
2022-11-18T07:42:57.997Z,98757.91
2022-11-18T07:46:01.994Z,98754.94
2022-11-18T07:49:06.945Z,98757.63
2022-11-18T07:52:09.711Z,98767.81
2022-11-18T07:55:13.821Z,98775.66
2022-11-18T07:58:16.525Z,98770.81
2022-11-18T08:01:21.533Z,98777.06
2022-11-18T08:04:24.567Z,98773.03
2022-11-18T08:07:27.321Z,98787.59
2022-11-18T08:10:31.700Z,98755.88
2022-11-18T08:13:34.961Z,98799.25
2022-11-18T08:16:37.745Z,98796.66
2022-11-18T08:19:40.466Z,98808.34
2022-11-18T08:22:43.385Z,98809.88
2022-11-18T08:25:48.269Z,98804.88
2022-11-18T08:28:51.032Z,98809.88
2022-11-18T08:31:54.706Z,98815.75
2022-11-18T08:34:57.425Z,98820.56
2022-11-18T08:38:00.770Z,98823.00
2022-11-18T08:41:07.227Z,98814.09
2022-11-18T08:44:14.057Z,98826.28
2022-11-18T08:47:16.889Z,98829.78
2022-11-18T08:50:19.874Z,98829.78
2022-11-18T08:53:22.735Z,98831.28
2022-11-18T08:56:27.023Z,98844.63
2022-11-18T08:59:30.168Z,98837.16
2022-11-18T09:02:32.994Z,98829.53
2022-11-18T09:05:35.761Z,98841.41
2022-11-18T09:08:38.548Z,98851.91
2022-11-18T09:11:42.726Z,98848.94
2022-11-18T09:15:13.014Z,98857.44
2022-11-18T09:18:10.136Z,98857.53
2022-11-18T09:21:12.977Z,98861.31
2022-11-18T09:24:16.002Z,98866.81
2022-11-18T09:27:20.392Z,98868.84
2022-11-18T09:30:23.226Z,98870.38
2022-11-18T09:33:26.452Z,98868.16
2022-11-18T09:36:29.815Z,98870.66
2022-11-18T09:39:32.893Z,98881.94
2022-11-18T09:42:47.757Z,98870.84
2022-11-18T09:45:57.827Z,98888.50
2022-11-18T09:49:14.070Z,98887.22
2022-11-18T09:52:20.970Z,98892.25
2022-11-18T09:55:24.208Z,98893.03
2022-11-18T09:58:35.103Z,98903.94
2022-11-18T10:01:38.150Z,98894.09
2022-11-18T10:04:41.248Z,98894.97
2022-11-18T10:07:57.318Z,98913.53
2022-11-18T10:11:07.890Z,98909.81
2022-11-18T10:14:24.305Z,98918.44
2022-11-18T10:17:41.811Z,98916.59
2022-11-18T10:20:53.676Z,98923.94
2022-11-18T10:24:04.814Z,98911.28
2022-11-18T10:27:12.492Z,98924.09
2022-11-18T10:30:19.570Z,98924.44
2022-11-18T10:33:28.323Z,98928.72
2022-11-18T10:36:34.446Z,98936.31
2022-11-18T10:39:51.843Z,98914.75
2022-11-18T10:42:55.080Z,98937.34
2022-11-18T10:46:17.110Z,98938.88
2022-11-18T10:49:19.841Z,98940.63
2022-11-18T10:52:23.207Z,98934.44
2022-11-18T10:55:26.691Z,98938.88
2022-11-18T10:58:32.382Z,98939.31
2022-11-18T11:01:36.650Z,98944.53
2022-11-18T11:04:39.870Z,98933.03
2022-11-18T11:07:42.779Z,98933.47
2022-11-18T11:10:55.848Z,98935.19
2022-11-18T11:14:07.462Z,98935.50
2022-11-18T11:17:15.203Z,98940.53
2022-11-18T11:20:21.955Z,98945.19
2022-11-18T11:23:25.990Z,98939.50
2022-11-18T11:30:14.061Z,98939.13
2022-11-18T11:33:27.471Z,98947.25
2022-11-18T11:36:44.516Z,98946.56
2022-11-18T11:40:04.259Z,98954.50
2022-11-18T11:43:26.449Z,98948.94
2022-11-18T11:46:38.460Z,98956.59
2022-11-18T11:49:54.006Z,98951.97
2022-11-18T11:53:15.521Z,98956.31
2022-11-18T11:56:26.933Z,98954.78
2022-11-18T11:59:38.165Z,98957.75
2022-11-18T12:03:06.918Z,98960.63
2022-11-18T12:06:12.127Z,98961.75
2022-11-18T12:09:22.683Z,98939.41
2022-11-18T12:12:35.215Z,98960.47
2022-11-18T12:15:47.891Z,98965.00
2022-11-18T12:18:58.484Z,98965.09
2022-11-18T12:22:04.063Z,98968.50
2022-11-18T12:25:51.486Z,98967.97
2022-11-18T12:28:54.210Z,98965.97
2022-11-18T12:31:59.491Z,98956.34
2022-11-18T12:35:05.350Z,98945.25
2022-11-18T12:38:29.790Z,98960.16
2022-11-18T12:42:12.665Z,98963.94
2022-11-18T12:45:57.178Z,98956.75
2022-11-18T12:49:38.432Z,98965.13
2022-11-18T12:52:54.153Z,98956.13
2022-11-18T12:55:59.202Z,98960.63
2022-11-18T12:59:03.237Z,98954.97
2022-11-18T13:02:22.113Z,98958.06
2022-11-18T13:05:26.177Z,98960.78
2022-11-18T13:08:30.765Z,98959.72
2022-11-18T13:11:48.621Z,98957.50
2022-11-18T13:15:10.122Z,98947.41
2022-11-18T13:18:17.202Z,98947.47
2022-11-18T13:21:43.026Z,98956.28
2022-11-18T13:24:47.915Z,98959.88
2022-11-18T13:28:01.064Z,98952.41
2022-11-18T13:31:10.686Z,98959.69
2022-11-18T13:34:19.961Z,98952.53
2022-11-18T13:37:24.801Z,98961.97
2022-11-18T13:40:30.273Z,98944.94
2022-11-18T13:43:34.582Z,98957.50
2022-11-18T13:46:38.199Z,98958.81
2022-11-18T13:49:54.613Z,98968.69
2022-11-18T13:53:07.733Z,98973.06
2022-11-18T13:56:18.682Z,98973.38
2022-11-18T13:59:25.004Z,98970.13
2022-11-18T14:02:27.869Z,98965.78
2022-11-18T14:05:30.803Z,98976.75
2022-11-18T14:08:35.176Z,98974.53
2022-11-18T14:11:39.309Z,98963.50
2022-11-18T14:14:44.440Z,98980.50
2022-11-18T14:17:57.979Z,98990.31
2022-11-18T14:21:02.841Z,98989.66
2022-11-18T14:24:06.728Z,98990.06
2022-11-18T14:27:38.375Z,98990.00
2022-11-18T14:30:43.707Z,98993.13
2022-11-18T14:34:06.056Z,98990.34
2022-11-18T14:37:13.389Z,98995.97
2022-11-18T14:40:16.866Z,99004.31
2022-11-18T14:43:19.542Z,99006.41
2022-11-18T14:46:24.338Z,99008.75
2022-11-18T14:49:30.786Z,99005.66
2022-11-18T14:52:33.527Z,99006.34
2022-11-18T14:55:37.147Z,99016.69
2022-11-18T14:58:39.845Z,99017.25
2022-11-18T15:01:45.374Z,99025.75
2022-11-18T15:04:48.595Z,99019.78
2022-11-18T15:07:51.436Z,99027.41
2022-11-18T15:10:55.011Z,99033.09
2022-11-18T15:13:57.673Z,99037.72
2022-11-18T15:17:01.744Z,99045.38
2022-11-18T15:20:06.852Z,99044.72
2022-11-18T15:23:09.619Z,99035.59
2022-11-18T15:26:18.792Z,99053.88
2022-11-18T15:29:23.393Z,99050.38
2022-11-18T15:32:27.474Z,99056.25
2022-11-18T15:35:30.406Z,99060.03
2022-11-18T15:38:34.389Z,99062.75
2022-11-18T15:41:39.469Z,99061.78
2022-11-18T15:44:42.322Z,99065.63
2022-11-18T15:47:46.519Z,99078.34
2022-11-18T15:50:53.240Z,99069.28
2022-11-18T15:53:57.202Z,99069.28
2022-11-18T15:57:00.047Z,99072.34
2022-11-18T16:00:04.061Z,99068.53
2022-11-18T16:03:08.416Z,99068.97
2022-11-18T16:06:11.169Z,99074.03
2022-11-18T16:09:15.797Z,99075.56
2022-11-18T16:12:36.682Z,99079.47
2022-11-18T16:15:48.188Z,99077.56
2022-11-18T16:18:54.926Z,99088.00
2022-11-18T16:21:57.851Z,99089.50
2022-11-18T16:25:00.538Z,99093.59
2022-11-18T16:28:07.374Z,99100.16
2022-11-18T16:31:33.862Z,99105.13
2022-11-18T16:34:39.392Z,99108.94
2022-11-18T16:37:42.134Z,99107.38
2022-11-18T16:40:44.817Z,99113.91
2022-11-18T16:43:49.878Z,99105.50
2022-11-18T16:46:53.908Z,99121.19
2022-11-18T16:49:57.969Z,99118.75
2022-11-18T16:53:00.762Z,99116.47
2022-11-18T16:56:04.303Z,99127.00
2022-11-18T16:59:12.019Z,99119.41
2022-11-18T17:02:15.858Z,99130.19
2022-11-18T17:05:20.083Z,99134.31
2022-11-18T17:08:22.851Z,99131.94
2022-11-18T17:11:25.670Z,99148.03
2022-11-18T17:14:30.249Z,99147.25
2022-11-18T17:17:33.073Z,99144.72
2022-11-18T17:20:37.268Z,99148.38
2022-11-18T17:23:40.990Z,99153.06
2022-11-18T17:26:44.310Z,99148.81
2022-11-18T17:29:48.109Z,99124.41
2022-11-18T17:32:50.887Z,99165.31
2022-11-18T17:36:02.418Z,99163.16
2022-11-18T17:39:05.283Z,99165.03
2022-11-18T17:42:19.008Z,99165.91
2022-11-18T17:45:21.759Z,99164.47
2022-11-18T17:48:25.685Z,99168.13
2022-11-18T17:51:31.405Z,99163.66
2022-11-18T17:54:34.165Z,99185.06
2022-11-18T17:57:36.921Z,99180.75
2022-11-18T18:00:40.778Z,99187.47
2022-11-18T18:03:43.840Z,99162.16
2022-11-18T18:06:49.058Z,99191.50
2022-11-18T18:09:51.764Z,99189.94
2022-11-18T18:13:12.062Z,99189.25
2022-11-18T18:16:15.130Z,99178.13
2022-11-18T18:19:19.315Z,99191.56
2022-11-18T18:22:23.623Z,99209.59
2022-11-18T18:25:26.432Z,99207.72
2022-11-18T18:28:29.130Z,99206.91
2022-11-18T18:31:36.067Z,99197.69
2022-11-18T18:34:38.876Z,99214.22
2022-11-18T18:37:42.948Z,99219.28
2022-11-18T18:40:45.662Z,99227.88
2022-11-18T18:43:49.700Z,99225.84
2022-11-18T18:46:51.387Z,99218.44
2022-11-18T18:49:54.148Z,99223.50
2022-11-18T18:52:58.329Z,99229.59
2022-11-18T18:56:01.086Z,99229.31
2022-11-18T18:59:03.900Z,99234.41
2022-11-18T19:02:06.651Z,99228.78
2022-11-18T19:05:09.588Z,99225.94
2022-11-18T19:08:13.661Z,99225.94
2022-11-18T19:11:35.629Z,99212.47
2022-11-18T19:14:38.397Z,99238.97
2022-11-18T19:17:42.035Z,99234.53
2022-11-18T19:20:45.003Z,99233.59
2022-11-18T19:23:49.318Z,99228.19
2022-11-18T19:26:52.130Z,99224.19
2022-11-18T19:29:54.890Z,99238.16
2022-11-18T19:32:58.985Z,99229.13
2022-11-18T19:36:02.966Z,99236.09
2022-11-18T19:39:07.163Z,99225.81
2022-11-18T19:42:11.009Z,99240.06
2022-11-18T19:45:14.131Z,99241.97
2022-11-18T19:48:17.131Z,99243.94
2022-11-18T19:51:20.109Z,99244.00
2022-11-18T19:54:24.680Z,99242.56
2022-11-18T19:57:27.549Z,99234.41
2022-11-18T20:00:30.916Z,99252.88
2022-11-18T20:03:33.671Z,99248.00
2022-11-18T20:06:37.718Z,99250.56
2022-11-18T20:09:41.814Z,99250.69
2022-11-18T20:12:44.701Z,99252.28
2022-11-18T20:15:47.536Z,99240.47
2022-11-18T20:18:54.055Z,99245.72
2022-11-18T20:21:56.738Z,99241.03
2022-11-18T20:25:01.869Z,99202.97
2022-11-18T20:28:05.100Z,99240.28
2022-11-18T20:31:12.242Z,99255.19
2022-11-18T20:34:15.594Z,99249.63
2022-11-18T20:37:18.901Z,99264.03
2022-11-18T20:40:23.421Z,99255.19
2022-11-18T20:43:26.542Z,99247.16
2022-11-18T20:46:29.796Z,99255.25
2022-11-18T20:49:34.284Z,99254.13
2022-11-18T20:52:37.210Z,99240.41
2022-11-18T20:55:41.418Z,99252.13
2022-11-18T20:58:44.264Z,99253.06
2022-11-18T21:01:47.094Z,99255.19
2022-11-18T21:04:49.858Z,99264.38
2022-11-18T21:07:54.142Z,99262.84
2022-11-18T21:11:01.938Z,99265.72
2022-11-18T21:14:24.346Z,99234.56
2022-11-18T21:17:28.266Z,99276.75
2022-11-18T21:20:48.291Z,99283.75
2022-11-18T21:23:54.650Z,99273.88
2022-11-18T21:27:00.090Z,99278.00
2022-11-18T21:30:03.871Z,99264.25
2022-11-18T21:33:06.970Z,99289.34
2022-11-18T21:36:09.905Z,99275.88
2022-11-18T21:39:13.170Z,99286.06
2022-11-18T21:42:17.286Z,99287.09
2022-11-18T21:45:20.345Z,99294.06
2022-11-18T21:48:23.111Z,99295.66
2022-11-18T21:51:26.236Z,99305.44
2022-11-18T21:54:29.002Z,99295.44
2022-11-18T21:57:33.135Z,99297.19
2022-11-18T22:00:35.959Z,99296.25
2022-11-18T22:03:39.828Z,99295.38
2022-11-18T22:06:42.559Z,99298.00
2022-11-18T22:09:45.435Z,99289.84
2022-11-18T22:12:51.496Z,99301.50
2022-11-18T22:16:01.837Z,99303.25
2022-11-18T22:19:08.159Z,99285.22
2022-11-18T22:22:11.264Z,99290.72
2022-11-18T22:25:14.067Z,99296.09
2022-11-18T22:28:18.163Z,99294.28
2022-11-18T22:31:22.464Z,99294.34
2022-11-18T22:34:25.269Z,99296.38
2022-11-18T22:37:28.079Z,99302.50
2022-11-18T22:40:30.794Z,99303.69
2022-11-18T22:43:34.766Z,99304.19
2022-11-18T22:46:38.453Z,99312.78
2022-11-18T22:49:41.209Z,99311.03
2022-11-18T22:52:44.231Z,99307.91
2022-11-18T22:55:46.923Z,99318.84
2022-11-18T22:58:51.046Z,99316.22
2022-11-18T23:01:54.115Z,99320.28
2022-11-18T23:04:56.861Z,99314.59
2022-11-18T23:07:59.584Z,99325.50
2022-11-18T23:11:03.129Z,99329.03
2022-11-18T23:14:08.062Z,99338.03
2022-11-18T23:17:10.946Z,99341.69
2022-11-18T23:20:13.623Z,99344.25
2022-11-18T23:23:16.563Z,99341.56
2022-11-18T23:26:19.304Z,99343.16
2022-11-18T23:29:23.538Z,99353.63
2022-11-18T23:32:26.210Z,99362.59
2022-11-18T23:35:29.333Z,99359.75
2022-11-18T23:38:34.987Z,99354.81
2022-11-18T23:41:38.205Z,99347.38
2022-11-18T23:44:50.112Z,99339.00
2022-11-18T23:47:54.557Z,99358.75
2022-11-18T23:50:58.487Z,99358.63
2022-11-18T23:54:01.217Z,99369.88
2022-11-18T23:57:05.509Z,99376.22
